sensor_id;sensor_type;location;lat;lon;timestamp;temperature;humidity
24560;DHT22;12727;49.934;8.656;2022-07-09T00:02:17;15.50;99.90
24560;DHT22;12727;49.934;8.656;2022-07-09T00:04:42;15.50;99.90
24560;DHT22;12727;49.934;8.656;2022-07-09T00:07:08;15.40;99.90
24560;DHT22;12727;49.934;8.656;2022-07-09T00:09:33;15.20;99.90
24560;DHT22;12727;49.934;8.656;2022-07-09T00:11:59;15.30;99.90
24560;DHT22;12727;49.934;8.656;2022-07-09T00:14:25;15.40;99.90
24560;DHT22;12727;49.934;8.656;2022-07-09T00:16:50;15.40;99.90
24560;DHT22;12727;49.934;8.656;2022-07-09T00:19:16;15.40;99.90
24560;DHT22;12727;49.934;8.656;2022-07-09T00:21:42;15.40;99.90
24560;DHT22;12727;49.934;8.656;2022-07-09T00:24:08;15.10;99.90
24560;DHT22;12727;49.934;8.656;2022-07-09T00:26:34;15.10;99.90
24560;DHT22;12727;49.934;8.656;2022-07-09T00:28:59;15.20;99.90
24560;DHT22;12727;49.934;8.656;2022-07-09T00:31:25;15.20;99.90
24560;DHT22;12727;49.934;8.656;2022-07-09T00:33:50;15.00;99.90
24560;DHT22;12727;49.934;8.656;2022-07-09T00:36:16;14.80;99.90
24560;DHT22;12727;49.934;8.656;2022-07-09T00:38:42;14.80;99.90
24560;DHT22;12727;49.934;8.656;2022-07-09T00:41:07;14.90;99.90
24560;DHT22;12727;49.934;8.656;2022-07-09T00:43:33;14.90;99.90
24560;DHT22;12727;49.934;8.656;2022-07-09T00:45:59;14.90;99.90
24560;DHT22;12727;49.934;8.656;2022-07-09T00:48:24;14.90;99.90
24560;DHT22;12727;49.934;8.656;2022-07-09T00:50:51;14.80;99.90
24560;DHT22;12727;49.934;8.656;2022-07-09T00:53:21;14.90;99.90
24560;DHT22;12727;49.934;8.656;2022-07-09T00:55:48;14.60;99.90
24560;DHT22;12727;49.934;8.656;2022-07-09T00:58:18;14.70;99.90
24560;DHT22;12727;49.934;8.656;2022-07-09T01:00:44;14.80;99.90
24560;DHT22;12727;49.934;8.656;2022-07-09T01:03:10;14.70;99.90
24560;DHT22;12727;49.934;8.656;2022-07-09T01:05:35;14.70;99.90
24560;DHT22;12727;49.934;8.656;2022-07-09T01:08:05;14.60;99.90
24560;DHT22;12727;49.934;8.656;2022-07-09T01:10:32;14.60;99.90
24560;DHT22;12727;49.934;8.656;2022-07-09T01:12:58;14.50;99.90
24560;DHT22;12727;49.934;8.656;2022-07-09T01:15:24;14.60;99.90
24560;DHT22;12727;49.934;8.656;2022-07-09T01:17:51;14.60;99.90
24560;DHT22;12727;49.934;8.656;2022-07-09T01:20:28;14.70;99.90
24560;DHT22;12727;49.934;8.656;2022-07-09T01:22:57;14.70;99.90
24560;DHT22;12727;49.934;8.656;2022-07-09T01:25:39;14.90;99.90
24560;DHT22;12727;49.934;8.656;2022-07-09T01:28:07;14.90;99.90
24560;DHT22;12727;49.934;8.656;2022-07-09T01:30:34;14.70;99.90
24560;DHT22;12727;49.934;8.656;2022-07-09T01:33:00;14.50;99.90
24560;DHT22;12727;49.934;8.656;2022-07-09T01:35:27;14.30;99.90
24560;DHT22;12727;49.934;8.656;2022-07-09T01:37:53;14.40;99.90
24560;DHT22;12727;49.934;8.656;2022-07-09T01:40:19;14.20;99.90
24560;DHT22;12727;49.934;8.656;2022-07-09T01:42:45;14.00;99.90
24560;DHT22;12727;49.934;8.656;2022-07-09T01:45:11;14.10;99.90
24560;DHT22;12727;49.934;8.656;2022-07-09T01:47:37;14.10;99.90
24560;DHT22;12727;49.934;8.656;2022-07-09T01:50:03;13.90;99.90
24560;DHT22;12727;49.934;8.656;2022-07-09T01:52:29;13.90;99.90
24560;DHT22;12727;49.934;8.656;2022-07-09T01:54:55;14.20;99.90
24560;DHT22;12727;49.934;8.656;2022-07-09T01:57:21;14.30;99.90
24560;DHT22;12727;49.934;8.656;2022-07-09T01:59:46;14.40;99.90
24560;DHT22;12727;49.934;8.656;2022-07-09T02:02:12;14.50;99.90
24560;DHT22;12727;49.934;8.656;2022-07-09T02:04:37;14.20;99.90
24560;DHT22;12727;49.934;8.656;2022-07-09T02:07:03;14.00;99.90
24560;DHT22;12727;49.934;8.656;2022-07-09T02:09:29;13.80;99.90
24560;DHT22;12727;49.934;8.656;2022-07-09T02:11:55;13.60;99.90
24560;DHT22;12727;49.934;8.656;2022-07-09T02:14:21;13.60;99.90
24560;DHT22;12727;49.934;8.656;2022-07-09T02:16:47;13.60;99.90
24560;DHT22;12727;49.934;8.656;2022-07-09T02:19:13;13.50;99.90
24560;DHT22;12727;49.934;8.656;2022-07-09T02:21:39;13.50;99.90
24560;DHT22;12727;49.934;8.656;2022-07-09T02:24:05;13.50;99.90
24560;DHT22;12727;49.934;8.656;2022-07-09T02:26:31;13.50;99.90
24560;DHT22;12727;49.934;8.656;2022-07-09T02:28:57;13.50;99.90
24560;DHT22;12727;49.934;8.656;2022-07-09T02:31:22;13.50;99.90
24560;DHT22;12727;49.934;8.656;2022-07-09T02:33:48;13.50;99.90
24560;DHT22;12727;49.934;8.656;2022-07-09T02:36:14;13.60;99.90
24560;DHT22;12727;49.934;8.656;2022-07-09T02:38:40;13.50;99.90
24560;DHT22;12727;49.934;8.656;2022-07-09T02:41:05;13.50;99.90
24560;DHT22;12727;49.934;8.656;2022-07-09T02:43:31;13.50;99.90
24560;DHT22;12727;49.934;8.656;2022-07-09T02:45:58;13.60;99.90
24560;DHT22;12727;49.934;8.656;2022-07-09T02:48:24;13.70;99.90
24560;DHT22;12727;49.934;8.656;2022-07-09T02:50:51;13.60;99.90
24560;DHT22;12727;49.934;8.656;2022-07-09T02:53:17;13.50;99.90
24560;DHT22;12727;49.934;8.656;2022-07-09T02:55:42;13.30;99.90
24560;DHT22;12727;49.934;8.656;2022-07-09T02:58:08;13.40;99.90
24560;DHT22;12727;49.934;8.656;2022-07-09T03:00:33;13.50;99.90
24560;DHT22;12727;49.934;8.656;2022-07-09T03:02:59;13.30;99.90
24560;DHT22;12727;49.934;8.656;2022-07-09T03:05:25;13.10;99.90
24560;DHT22;12727;49.934;8.656;2022-07-09T03:07:50;13.10;99.90
24560;DHT22;12727;49.934;8.656;2022-07-09T03:10:16;13.40;99.90
24560;DHT22;12727;49.934;8.656;2022-07-09T03:12:41;13.50;99.90
24560;DHT22;12727;49.934;8.656;2022-07-09T03:15:08;13.80;99.90
24560;DHT22;12727;49.934;8.656;2022-07-09T03:17:34;13.90;99.90
24560;DHT22;12727;49.934;8.656;2022-07-09T03:20:00;13.70;99.90
24560;DHT22;12727;49.934;8.656;2022-07-09T03:22:26;13.70;99.90
24560;DHT22;12727;49.934;8.656;2022-07-09T03:24:51;13.70;99.90
24560;DHT22;12727;49.934;8.656;2022-07-09T03:27:17;13.80;99.90
24560;DHT22;12727;49.934;8.656;2022-07-09T03:29:43;13.60;99.90
24560;DHT22;12727;49.934;8.656;2022-07-09T03:32:09;13.70;99.90
24560;DHT22;12727;49.934;8.656;2022-07-09T03:34:35;13.70;99.90
24560;DHT22;12727;49.934;8.656;2022-07-09T03:37:00;13.70;99.90
24560;DHT22;12727;49.934;8.656;2022-07-09T03:39:26;13.60;99.90
24560;DHT22;12727;49.934;8.656;2022-07-09T03:41:52;13.40;99.90
24560;DHT22;12727;49.934;8.656;2022-07-09T03:44:18;13.30;99.90
24560;DHT22;12727;49.934;8.656;2022-07-09T03:46:43;13.40;99.90
24560;DHT22;12727;49.934;8.656;2022-07-09T03:49:10;13.20;99.90
24560;DHT22;12727;49.934;8.656;2022-07-09T03:51:36;13.20;99.90
24560;DHT22;12727;49.934;8.656;2022-07-09T03:54:02;13.10;99.90
24560;DHT22;12727;49.934;8.656;2022-07-09T03:56:27;13.30;99.90
24560;DHT22;12727;49.934;8.656;2022-07-09T03:58:53;13.40;99.90
24560;DHT22;12727;49.934;8.656;2022-07-09T04:01:19;13.40;99.90
24560;DHT22;12727;49.934;8.656;2022-07-09T04:03:44;13.50;99.90
24560;DHT22;12727;49.934;8.656;2022-07-09T04:06:10;13.40;99.90
24560;DHT22;12727;49.934;8.656;2022-07-09T04:08:36;13.40;99.90
24560;DHT22;12727;49.934;8.656;2022-07-09T04:11:02;13.60;99.90
24560;DHT22;12727;49.934;8.656;2022-07-09T04:13:28;13.90;99.90
24560;DHT22;12727;49.934;8.656;2022-07-09T04:15:53;14.00;99.90
24560;DHT22;12727;49.934;8.656;2022-07-09T04:18:19;13.90;99.90
24560;DHT22;12727;49.934;8.656;2022-07-09T04:20:45;13.90;99.90
24560;DHT22;12727;49.934;8.656;2022-07-09T04:23:11;14.00;99.90
24560;DHT22;12727;49.934;8.656;2022-07-09T04:25:37;14.00;99.90
24560;DHT22;12727;49.934;8.656;2022-07-09T04:28:03;14.10;99.90
24560;DHT22;12727;49.934;8.656;2022-07-09T04:30:30;14.10;99.90
24560;DHT22;12727;49.934;8.656;2022-07-09T04:32:56;14.10;99.90
24560;DHT22;12727;49.934;8.656;2022-07-09T04:35:22;14.10;99.90
24560;DHT22;12727;49.934;8.656;2022-07-09T04:37:47;14.20;99.90
24560;DHT22;12727;49.934;8.656;2022-07-09T04:40:13;14.20;99.90
24560;DHT22;12727;49.934;8.656;2022-07-09T04:42:39;14.30;99.90
24560;DHT22;12727;49.934;8.656;2022-07-09T04:45:04;14.40;99.90
24560;DHT22;12727;49.934;8.656;2022-07-09T04:47:30;14.50;99.90
24560;DHT22;12727;49.934;8.656;2022-07-09T04:49:56;14.60;99.90
24560;DHT22;12727;49.934;8.656;2022-07-09T04:52:21;14.80;99.90
24560;DHT22;12727;49.934;8.656;2022-07-09T04:54:52;15.00;99.90
24560;DHT22;12727;49.934;8.656;2022-07-09T04:57:17;15.20;99.90
24560;DHT22;12727;49.934;8.656;2022-07-09T04:59:43;15.40;99.90
24560;DHT22;12727;49.934;8.656;2022-07-09T05:02:08;15.60;99.90
24560;DHT22;12727;49.934;8.656;2022-07-09T05:04:34;16.00;99.90
24560;DHT22;12727;49.934;8.656;2022-07-09T05:07:00;16.20;99.90
24560;DHT22;12727;49.934;8.656;2022-07-09T05:09:25;16.30;99.90
24560;DHT22;12727;49.934;8.656;2022-07-09T05:11:51;16.60;99.90
24560;DHT22;12727;49.934;8.656;2022-07-09T05:14:16;16.80;99.90
24560;DHT22;12727;49.934;8.656;2022-07-09T05:16:42;16.90;99.90
24560;DHT22;12727;49.934;8.656;2022-07-09T05:19:11;17.10;99.90
24560;DHT22;12727;49.934;8.656;2022-07-09T05:21:38;17.20;99.90
24560;DHT22;12727;49.934;8.656;2022-07-09T05:24:04;17.30;99.90
24560;DHT22;12727;49.934;8.656;2022-07-09T05:26:31;17.40;99.90
24560;DHT22;12727;49.934;8.656;2022-07-09T05:28:57;17.40;99.90
24560;DHT22;12727;49.934;8.656;2022-07-09T05:31:22;17.50;99.90
24560;DHT22;12727;49.934;8.656;2022-07-09T05:33:48;17.40;99.90
24560;DHT22;12727;49.934;8.656;2022-07-09T05:36:14;17.60;99.90
24560;DHT22;12727;49.934;8.656;2022-07-09T05:38:39;17.60;99.90
24560;DHT22;12727;49.934;8.656;2022-07-09T05:41:05;17.70;99.90
24560;DHT22;12727;49.934;8.656;2022-07-09T05:43:30;17.80;99.90
24560;DHT22;12727;49.934;8.656;2022-07-09T05:45:56;17.90;99.90
24560;DHT22;12727;49.934;8.656;2022-07-09T05:48:21;18.00;99.90
24560;DHT22;12727;49.934;8.656;2022-07-09T05:50:47;18.00;99.90
24560;DHT22;12727;49.934;8.656;2022-07-09T05:53:13;18.20;99.90
24560;DHT22;12727;49.934;8.656;2022-07-09T05:55:38;18.30;99.90
24560;DHT22;12727;49.934;8.656;2022-07-09T05:58:04;18.40;99.90
24560;DHT22;12727;49.934;8.656;2022-07-09T06:00:29;18.60;99.90
24560;DHT22;12727;49.934;8.656;2022-07-09T06:02:55;18.80;99.90
24560;DHT22;12727;49.934;8.656;2022-07-09T06:05:20;18.90;99.90
24560;DHT22;12727;49.934;8.656;2022-07-09T06:07:46;19.20;99.80
24560;DHT22;12727;49.934;8.656;2022-07-09T06:10:12;19.40;99.10
24560;DHT22;12727;49.934;8.656;2022-07-09T06:12:39;19.60;98.50
24560;DHT22;12727;49.934;8.656;2022-07-09T06:15:06;19.80;97.70
24560;DHT22;12727;49.934;8.656;2022-07-09T06:17:32;19.90;97.30
24560;DHT22;12727;49.934;8.656;2022-07-09T06:19:57;20.30;96.50
24560;DHT22;12727;49.934;8.656;2022-07-09T06:22:23;20.50;95.70
24560;DHT22;12727;49.934;8.656;2022-07-09T06:24:48;20.50;95.30
24560;DHT22;12727;49.934;8.656;2022-07-09T06:27:14;20.60;94.90
24560;DHT22;12727;49.934;8.656;2022-07-09T06:29:39;20.70;94.30
24560;DHT22;12727;49.934;8.656;2022-07-09T06:32:05;20.80;93.80
24560;DHT22;12727;49.934;8.656;2022-07-09T06:34:31;21.30;93.30
24560;DHT22;12727;49.934;8.656;2022-07-09T06:36:58;21.60;92.40
24560;DHT22;12727;49.934;8.656;2022-07-09T06:39:23;22.00;91.50
24560;DHT22;12727;49.934;8.656;2022-07-09T06:42:08;22.10;91.00
24560;DHT22;12727;49.934;8.656;2022-07-09T06:44:34;22.30;90.60
24560;DHT22;12727;49.934;8.656;2022-07-09T06:47:00;22.70;88.70
24560;DHT22;12727;49.934;8.656;2022-07-09T06:49:26;23.10;86.60
24560;DHT22;12727;49.934;8.656;2022-07-09T06:51:52;23.00;85.50
24560;DHT22;12727;49.934;8.656;2022-07-09T06:54:17;22.60;85.20
24560;DHT22;12727;49.934;8.656;2022-07-09T06:56:43;22.20;86.00
24560;DHT22;12727;49.934;8.656;2022-07-09T06:59:08;22.00;87.20
24560;DHT22;12727;49.934;8.656;2022-07-09T07:01:34;21.90;87.40
24560;DHT22;12727;49.934;8.656;2022-07-09T07:04:00;21.80;87.30
24560;DHT22;12727;49.934;8.656;2022-07-09T07:06:25;21.80;88.20
24560;DHT22;12727;49.934;8.656;2022-07-09T07:08:51;21.60;88.30
24560;DHT22;12727;49.934;8.656;2022-07-09T07:11:16;21.50;88.60
24560;DHT22;12727;49.934;8.656;2022-07-09T07:13:42;21.60;88.90
24560;DHT22;12727;49.934;8.656;2022-07-09T07:16:08;21.80;88.10
24560;DHT22;12727;49.934;8.656;2022-07-09T07:18:33;21.80;87.70
24560;DHT22;12727;49.934;8.656;2022-07-09T07:20:59;21.70;87.70
24560;DHT22;12727;49.934;8.656;2022-07-09T07:23:24;21.70;87.80
24560;DHT22;12727;49.934;8.656;2022-07-09T07:25:50;22.00;87.30
24560;DHT22;12727;49.934;8.656;2022-07-09T07:28:16;22.00;86.70
24560;DHT22;12727;49.934;8.656;2022-07-09T07:30:41;22.00;86.30
24560;DHT22;12727;49.934;8.656;2022-07-09T07:33:07;22.00;85.80
24560;DHT22;12727;49.934;8.656;2022-07-09T07:35:32;22.00;86.20
24560;DHT22;12727;49.934;8.656;2022-07-09T07:37:58;22.00;85.80
24560;DHT22;12727;49.934;8.656;2022-07-09T07:40:26;21.90;85.90
24560;DHT22;12727;49.934;8.656;2022-07-09T07:42:52;21.90;85.60
24560;DHT22;12727;49.934;8.656;2022-07-09T07:45:17;21.80;86.50
24560;DHT22;12727;49.934;8.656;2022-07-09T07:47:43;21.80;85.90
24560;DHT22;12727;49.934;8.656;2022-07-09T07:50:09;21.80;86.00
24560;DHT22;12727;49.934;8.656;2022-07-09T07:52:34;21.70;86.00
24560;DHT22;12727;49.934;8.656;2022-07-09T07:55:00;21.70;86.00
24560;DHT22;12727;49.934;8.656;2022-07-09T07:57:26;21.50;86.00
24560;DHT22;12727;49.934;8.656;2022-07-09T07:59:51;21.40;86.50
24560;DHT22;12727;49.934;8.656;2022-07-09T08:02:17;21.40;86.50
24560;DHT22;12727;49.934;8.656;2022-07-09T08:04:42;21.50;86.70
24560;DHT22;12727;49.934;8.656;2022-07-09T08:07:08;21.50;86.20
24560;DHT22;12727;49.934;8.656;2022-07-09T08:09:33;21.70;86.10
24560;DHT22;12727;49.934;8.656;2022-07-09T08:12:00;22.00;85.00
24560;DHT22;12727;49.934;8.656;2022-07-09T08:14:26;22.40;84.30
24560;DHT22;12727;49.934;8.656;2022-07-09T08:16:51;22.30;83.50
24560;DHT22;12727;49.934;8.656;2022-07-09T08:19:17;22.40;83.50
24560;DHT22;12727;49.934;8.656;2022-07-09T08:21:43;22.50;83.30
24560;DHT22;12727;49.934;8.656;2022-07-09T08:24:08;22.60;82.80
24560;DHT22;12727;49.934;8.656;2022-07-09T08:26:34;22.70;83.20
24560;DHT22;12727;49.934;8.656;2022-07-09T08:28:59;22.80;82.30
24560;DHT22;12727;49.934;8.656;2022-07-09T08:31:25;23.00;82.00
24560;DHT22;12727;49.934;8.656;2022-07-09T08:33:51;23.40;80.00
24560;DHT22;12727;49.934;8.656;2022-07-09T08:36:17;23.50;79.60
24560;DHT22;12727;49.934;8.656;2022-07-09T08:38:43;24.10;77.70
24560;DHT22;12727;49.934;8.656;2022-07-09T08:41:09;25.00;74.90
24560;DHT22;12727;49.934;8.656;2022-07-09T08:43:37;25.70;72.50
24560;DHT22;12727;49.934;8.656;2022-07-09T08:46:03;26.20;70.90
24560;DHT22;12727;49.934;8.656;2022-07-09T08:48:36;26.60;68.60
24560;DHT22;12727;49.934;8.656;2022-07-09T08:51:02;25.80;68.20
24560;DHT22;12727;49.934;8.656;2022-07-09T08:53:28;24.90;70.60
24560;DHT22;12727;49.934;8.656;2022-07-09T08:55:55;24.60;71.70
24560;DHT22;12727;49.934;8.656;2022-07-09T08:58:21;24.30;71.80
24560;DHT22;12727;49.934;8.656;2022-07-09T09:00:48;23.70;72.40
24560;DHT22;12727;49.934;8.656;2022-07-09T09:03:14;23.40;72.90
24560;DHT22;12727;49.934;8.656;2022-07-09T09:05:40;23.20;73.90
24560;DHT22;12727;49.934;8.656;2022-07-09T09:08:19;23.00;74.80
24560;DHT22;12727;49.934;8.656;2022-07-09T09:10:46;22.80;75.70
24560;DHT22;12727;49.934;8.656;2022-07-09T09:13:14;22.80;75.50
24560;DHT22;12727;49.934;8.656;2022-07-09T09:15:41;22.80;74.30
24560;DHT22;12727;49.934;8.656;2022-07-09T09:18:07;22.90;73.50
24560;DHT22;12727;49.934;8.656;2022-07-09T09:20:32;23.50;73.10
24560;DHT22;12727;49.934;8.656;2022-07-09T09:22:58;24.70;69.80
24560;DHT22;12727;49.934;8.656;2022-07-09T09:25:28;25.80;66.40
24560;DHT22;12727;49.934;8.656;2022-07-09T09:27:55;27.10;63.80
24560;DHT22;12727;49.934;8.656;2022-07-09T09:30:22;27.90;61.30
24560;DHT22;12727;49.934;8.656;2022-07-09T09:33:14;27.30;61.40
24560;DHT22;12727;49.934;8.656;2022-07-09T09:35:44;26.80;60.00
24560;DHT22;12727;49.934;8.656;2022-07-09T09:38:10;27.40;59.60
24560;DHT22;12727;49.934;8.656;2022-07-09T09:40:36;27.20;59.50
24560;DHT22;12727;49.934;8.656;2022-07-09T09:43:02;26.70;59.70
24560;DHT22;12727;49.934;8.656;2022-07-09T09:45:28;26.10;60.60
24560;DHT22;12727;49.934;8.656;2022-07-09T09:47:54;25.70;61.70
24560;DHT22;12727;49.934;8.656;2022-07-09T09:50:24;25.30;62.50
24560;DHT22;12727;49.934;8.656;2022-07-09T09:52:51;25.20;62.80
24560;DHT22;12727;49.934;8.656;2022-07-09T09:55:18;25.00;62.60
24560;DHT22;12727;49.934;8.656;2022-07-09T09:57:44;24.90;62.00
24560;DHT22;12727;49.934;8.656;2022-07-09T10:00:12;25.40;61.00
24560;DHT22;12727;49.934;8.656;2022-07-09T10:02:48;26.20;58.80
24560;DHT22;12727;49.934;8.656;2022-07-09T10:05:13;26.80;57.30
24560;DHT22;12727;49.934;8.656;2022-07-09T10:07:40;27.50;56.30
24560;DHT22;12727;49.934;8.656;2022-07-09T10:10:06;27.70;55.30
24560;DHT22;12727;49.934;8.656;2022-07-09T10:12:34;27.80;55.10
24560;DHT22;12727;49.934;8.656;2022-07-09T10:15:00;27.30;55.10
24560;DHT22;12727;49.934;8.656;2022-07-09T10:17:27;27.80;54.90
24560;DHT22;12727;49.934;8.656;2022-07-09T10:19:57;27.70;54.80
24560;DHT22;12727;49.934;8.656;2022-07-09T10:22:43;27.20;54.80
24560;DHT22;12727;49.934;8.656;2022-07-09T10:25:21;26.40;55.70
24560;DHT22;12727;49.934;8.656;2022-07-09T10:27:48;25.90;57.10
24560;DHT22;12727;49.934;8.656;2022-07-09T10:30:28;25.60;57.40
24560;DHT22;12727;49.934;8.656;2022-07-09T10:33:12;25.40;57.80
24560;DHT22;12727;49.934;8.656;2022-07-09T10:35:44;25.70;57.00
24560;DHT22;12727;49.934;8.656;2022-07-09T10:38:10;26.80;56.70
24560;DHT22;12727;49.934;8.656;2022-07-09T10:40:41;28.00;54.30
24560;DHT22;12727;49.934;8.656;2022-07-09T10:43:06;28.70;52.70
24560;DHT22;12727;49.934;8.656;2022-07-09T10:45:40;29.00;52.00
24560;DHT22;12727;49.934;8.656;2022-07-09T10:48:07;29.50;51.40
24560;DHT22;12727;49.934;8.656;2022-07-09T10:50:37;29.80;50.70
24560;DHT22;12727;49.934;8.656;2022-07-09T10:53:04;30.00;49.60
24560;DHT22;12727;49.934;8.656;2022-07-09T10:55:30;29.50;49.50
24560;DHT22;12727;49.934;8.656;2022-07-09T10:57:57;28.70;50.70
24560;DHT22;12727;49.934;8.656;2022-07-09T11:00:27;27.90;51.40
24560;DHT22;12727;49.934;8.656;2022-07-09T11:03:01;27.70;51.70
24560;DHT22;12727;49.934;8.656;2022-07-09T11:05:34;27.80;51.10
24560;DHT22;12727;49.934;8.656;2022-07-09T11:08:08;27.70;51.90
24560;DHT22;12727;49.934;8.656;2022-07-09T11:10:36;27.70;52.00
24560;DHT22;12727;49.934;8.656;2022-07-09T11:13:03;27.70;51.60
24560;DHT22;12727;49.934;8.656;2022-07-09T11:15:31;27.90;51.20
24560;DHT22;12727;49.934;8.656;2022-07-09T11:18:02;28.30;50.50
24560;DHT22;12727;49.934;8.656;2022-07-09T11:20:30;28.20;50.40
24560;DHT22;12727;49.934;8.656;2022-07-09T11:22:56;28.10;50.70
24560;DHT22;12727;49.934;8.656;2022-07-09T11:25:23;27.60;51.00
24560;DHT22;12727;49.934;8.656;2022-07-09T11:27:53;27.30;51.30
24560;DHT22;12727;49.934;8.656;2022-07-09T11:30:19;26.80;51.70
24560;DHT22;12727;49.934;8.656;2022-07-09T11:32:45;26.70;52.40
24560;DHT22;12727;49.934;8.656;2022-07-09T11:35:12;26.90;52.20
24560;DHT22;12727;49.934;8.656;2022-07-09T11:37:44;26.80;51.80
24560;DHT22;12727;49.934;8.656;2022-07-09T11:40:16;27.00;51.90
24560;DHT22;12727;49.934;8.656;2022-07-09T11:42:42;27.10;51.40
24560;DHT22;12727;49.934;8.656;2022-07-09T11:45:09;26.80;51.30
24560;DHT22;12727;49.934;8.656;2022-07-09T11:47:36;26.60;52.10
24560;DHT22;12727;49.934;8.656;2022-07-09T11:52:31;26.90;52.00
24560;DHT22;12727;49.934;8.656;2022-07-09T11:57:28;27.40;51.50
24560;DHT22;12727;49.934;8.656;2022-07-09T11:59:54;27.50;51.50
24560;DHT22;12727;49.934;8.656;2022-07-09T12:02:32;27.90;51.60
24560;DHT22;12727;49.934;8.656;2022-07-09T12:04:59;27.90;50.90
24560;DHT22;12727;49.934;8.656;2022-07-09T12:07:25;27.50;50.90
24560;DHT22;12727;49.934;8.656;2022-07-09T12:10:01;27.20;51.50
24560;DHT22;12727;49.934;8.656;2022-07-09T12:12:30;26.90;51.90
24560;DHT22;12727;49.934;8.656;2022-07-09T12:14:55;26.70;52.40
24560;DHT22;12727;49.934;8.656;2022-07-09T12:17:25;26.40;53.10
24560;DHT22;12727;49.934;8.656;2022-07-09T12:19:52;26.40;53.30
24560;DHT22;12727;49.934;8.656;2022-07-09T12:22:18;26.40;52.60
24560;DHT22;12727;49.934;8.656;2022-07-09T12:24:44;26.20;52.50
24560;DHT22;12727;49.934;8.656;2022-07-09T12:27:10;26.30;51.80
24560;DHT22;12727;49.934;8.656;2022-07-09T12:29:36;26.40;51.50
24560;DHT22;12727;49.934;8.656;2022-07-09T12:32:02;26.60;51.00
24560;DHT22;12727;49.934;8.656;2022-07-09T12:34:28;26.80;50.90
24560;DHT22;12727;49.934;8.656;2022-07-09T12:36:53;26.90;50.00
24560;DHT22;12727;49.934;8.656;2022-07-09T12:39:20;27.10;49.80
24560;DHT22;12727;49.934;8.656;2022-07-09T12:41:45;27.30;49.70
24560;DHT22;12727;49.934;8.656;2022-07-09T12:44:11;27.40;48.70
24560;DHT22;12727;49.934;8.656;2022-07-09T12:46:37;27.40;48.30
24560;DHT22;12727;49.934;8.656;2022-07-09T12:49:02;27.30;49.00
24560;DHT22;12727;49.934;8.656;2022-07-09T12:51:28;27.20;48.90
24560;DHT22;12727;49.934;8.656;2022-07-09T12:53:53;27.00;49.30
24560;DHT22;12727;49.934;8.656;2022-07-09T12:56:19;27.20;49.60
24560;DHT22;12727;49.934;8.656;2022-07-09T12:58:45;27.30;50.10
24560;DHT22;12727;49.934;8.656;2022-07-09T13:01:11;27.40;50.40
24560;DHT22;12727;49.934;8.656;2022-07-09T13:03:36;27.40;50.50
24560;DHT22;12727;49.934;8.656;2022-07-09T13:06:02;27.10;50.60
24560;DHT22;12727;49.934;8.656;2022-07-09T13:08:28;26.80;49.80
24560;DHT22;12727;49.934;8.656;2022-07-09T13:10:53;26.90;50.10
24560;DHT22;12727;49.934;8.656;2022-07-09T13:13:19;27.00;50.00
24560;DHT22;12727;49.934;8.656;2022-07-09T13:15:45;27.00;49.40
24560;DHT22;12727;49.934;8.656;2022-07-09T13:18:11;27.00;49.10
24560;DHT22;12727;49.934;8.656;2022-07-09T13:20:37;26.90;49.00
24560;DHT22;12727;49.934;8.656;2022-07-09T13:23:02;26.90;49.20
24560;DHT22;12727;49.934;8.656;2022-07-09T13:25:28;26.90;49.20
24560;DHT22;12727;49.934;8.656;2022-07-09T13:27:54;26.80;49.30
24560;DHT22;12727;49.934;8.656;2022-07-09T13:30:20;26.80;49.60
24560;DHT22;12727;49.934;8.656;2022-07-09T13:32:48;26.80;49.40
24560;DHT22;12727;49.934;8.656;2022-07-09T13:35:15;26.90;49.80
24560;DHT22;12727;49.934;8.656;2022-07-09T13:37:41;26.90;49.70
24560;DHT22;12727;49.934;8.656;2022-07-09T13:40:07;26.80;49.40
24560;DHT22;12727;49.934;8.656;2022-07-09T13:42:33;26.80;49.80
24560;DHT22;12727;49.934;8.656;2022-07-09T13:44:58;26.80;50.20
24560;DHT22;12727;49.934;8.656;2022-07-09T13:47:24;26.90;50.50
24560;DHT22;12727;49.934;8.656;2022-07-09T13:49:49;26.80;50.00
24560;DHT22;12727;49.934;8.656;2022-07-09T13:52:15;26.80;50.20
24560;DHT22;12727;49.934;8.656;2022-07-09T13:54:41;26.70;50.00
24560;DHT22;12727;49.934;8.656;2022-07-09T13:57:06;26.80;50.60
24560;DHT22;12727;49.934;8.656;2022-07-09T13:59:32;26.80;51.10
24560;DHT22;12727;49.934;8.656;2022-07-09T14:01:57;26.80;50.40
24560;DHT22;12727;49.934;8.656;2022-07-09T14:04:23;26.60;50.40
24560;DHT22;12727;49.934;8.656;2022-07-09T14:06:49;26.40;50.10
24560;DHT22;12727;49.934;8.656;2022-07-09T14:09:15;26.30;50.90
24560;DHT22;12727;49.934;8.656;2022-07-09T14:11:46;26.30;50.60
24560;DHT22;12727;49.934;8.656;2022-07-09T14:14:12;26.20;50.20
24560;DHT22;12727;49.934;8.656;2022-07-09T14:16:38;26.20;50.60
24560;DHT22;12727;49.934;8.656;2022-07-09T14:19:04;26.20;50.20
24560;DHT22;12727;49.934;8.656;2022-07-09T14:21:30;26.10;50.60
24560;DHT22;12727;49.934;8.656;2022-07-09T14:23:56;25.90;50.80
24560;DHT22;12727;49.934;8.656;2022-07-09T14:26:22;26.00;51.40
24560;DHT22;12727;49.934;8.656;2022-07-09T14:28:49;26.10;51.30
24560;DHT22;12727;49.934;8.656;2022-07-09T14:31:14;26.10;51.10
24560;DHT22;12727;49.934;8.656;2022-07-09T14:33:40;26.10;51.30
24560;DHT22;12727;49.934;8.656;2022-07-09T14:36:06;26.10;51.50
24560;DHT22;12727;49.934;8.656;2022-07-09T14:38:32;26.30;51.60
24560;DHT22;12727;49.934;8.656;2022-07-09T14:40:57;26.30;51.40
24560;DHT22;12727;49.934;8.656;2022-07-09T14:43:23;26.40;51.10
24560;DHT22;12727;49.934;8.656;2022-07-09T14:45:48;26.40;50.50
24560;DHT22;12727;49.934;8.656;2022-07-09T14:48:14;26.50;49.40
24560;DHT22;12727;49.934;8.656;2022-07-09T14:50:40;26.50;49.70
24560;DHT22;12727;49.934;8.656;2022-07-09T14:53:06;26.50;49.80
24560;DHT22;12727;49.934;8.656;2022-07-09T14:55:32;26.50;49.90
24560;DHT22;12727;49.934;8.656;2022-07-09T14:57:58;26.40;49.50
24560;DHT22;12727;49.934;8.656;2022-07-09T15:00:24;26.40;49.40
24560;DHT22;12727;49.934;8.656;2022-07-09T15:02:50;26.40;49.40
24560;DHT22;12727;49.934;8.656;2022-07-09T15:05:15;26.40;49.30
24560;DHT22;12727;49.934;8.656;2022-07-09T15:07:42;26.40;48.90
24560;DHT22;12727;49.934;8.656;2022-07-09T15:10:08;26.50;49.10
24560;DHT22;12727;49.934;8.656;2022-07-09T15:12:34;26.60;49.30
24560;DHT22;12727;49.934;8.656;2022-07-09T15:14:59;26.60;48.60
24560;DHT22;12727;49.934;8.656;2022-07-09T15:17:25;26.50;48.40
24560;DHT22;12727;49.934;8.656;2022-07-09T15:19:51;26.30;48.70
24560;DHT22;12727;49.934;8.656;2022-07-09T15:22:16;26.10;48.90
24560;DHT22;12727;49.934;8.656;2022-07-09T15:24:42;26.10;49.30
24560;DHT22;12727;49.934;8.656;2022-07-09T15:27:08;26.00;49.30
24560;DHT22;12727;49.934;8.656;2022-07-09T15:29:34;26.00;49.70
24560;DHT22;12727;49.934;8.656;2022-07-09T15:31:59;26.10;49.90